createdAt,value
2019-04-04T00:04:08.696Z,7.00
2019-04-04T00:09:13.553Z,7.10
2019-04-04T00:14:18.969Z,6.90
2019-04-04T00:19:24.129Z,7.10
2019-04-04T00:24:29.330Z,7.10
2019-04-04T00:29:34.535Z,7.10
2019-04-04T00:34:39.663Z,7.20
2019-04-04T00:39:44.855Z,7.20
2019-04-04T00:44:49.754Z,7.50
2019-04-04T00:49:54.895Z,7.50
2019-04-04T00:55:00.177Z,7.60
2019-04-04T01:00:05.945Z,7.60
2019-04-04T01:05:11.391Z,7.60
2019-04-04T01:10:18.818Z,7.40
2019-04-04T01:15:23.246Z,6.80
2019-04-04T01:20:28.476Z,6.10
2019-04-04T01:25:33.367Z,6.40
2019-04-04T01:30:38.787Z,6.40
2019-04-04T01:35:44.188Z,6.40
2019-04-04T01:40:49.735Z,6.90
2019-04-04T01:45:55.151Z,7.20
2019-04-04T01:51:00.573Z,7.40
2019-04-04T01:56:06.789Z,6.80
2019-04-04T02:01:12.365Z,6.70
2019-04-04T02:06:17.464Z,6.50
2019-04-04T02:11:22.616Z,7.00
2019-04-04T02:16:27.537Z,7.00
2019-04-04T02:21:32.934Z,6.90
2019-04-04T02:26:38.088Z,6.00
2019-04-04T02:31:47.301Z,5.90
2019-04-04T02:36:52.546Z,6.00
2019-04-04T02:41:57.435Z,6.60
2019-04-04T02:47:02.545Z,7.00
2019-04-04T02:52:12.842Z,7.00
2019-04-04T02:57:15.009Z,6.80
2019-04-04T03:02:20.088Z,6.90
2019-04-04T03:07:29.778Z,6.90
2019-04-04T03:12:32.072Z,7.10
2019-04-04T03:17:37.504Z,6.50
2019-04-04T03:22:42.719Z,6.40
2019-04-04T03:27:47.937Z,6.50
2019-04-04T03:32:55.003Z,6.80
2019-04-04T03:37:59.646Z,6.40
2019-04-04T03:43:04.544Z,6.30
2019-04-04T03:48:09.462Z,5.80
2019-04-04T03:53:17.315Z,5.70
2019-04-04T03:58:22.175Z,5.90
2019-04-04T04:03:27.424Z,5.80
2019-04-04T04:08:32.750Z,6.30
2019-04-04T04:13:37.953Z,6.30
2019-04-04T04:18:43.097Z,6.10
2019-04-04T04:23:49.775Z,6.10
2019-04-04T04:28:54.851Z,6.40
2019-04-04T04:34:01.571Z,6.30
2019-04-04T04:39:07.319Z,6.60
2019-04-04T04:44:12.620Z,6.80
2019-04-04T04:49:17.594Z,6.80
2019-04-04T04:54:23.556Z,6.80
2019-04-04T04:59:28.896Z,6.40
2019-04-04T05:04:34.130Z,6.70
2019-04-04T05:09:39.379Z,6.70
2019-04-04T05:14:44.633Z,6.70
2019-04-04T05:19:50.134Z,6.60
2019-04-04T05:25:07.941Z,6.50
2019-04-04T05:30:02.843Z,6.70
2019-04-04T05:35:08.031Z,6.90
2019-04-04T05:40:13.568Z,6.70
2019-04-04T05:45:18.447Z,6.80
2019-04-04T05:50:23.529Z,6.90
2019-04-04T05:55:28.612Z,6.60
2019-04-04T06:00:33.492Z,6.80
2019-04-04T06:05:38.787Z,7.00
2019-04-04T06:10:44.121Z,7.10
2019-04-04T06:15:49.265Z,7.10
2019-04-04T06:20:54.221Z,7.00
2019-04-04T06:25:59.418Z,7.10
2019-04-04T06:31:04.726Z,7.10
2019-04-04T06:36:09.905Z,6.90
2019-04-04T06:41:15.575Z,6.90
2019-04-04T06:46:22.726Z,7.00
2019-04-04T06:51:27.701Z,6.70
2019-04-04T06:56:32.633Z,6.40
2019-04-04T07:01:37.769Z,6.40
2019-04-04T08:34:31.008Z,7.20
2019-04-04T08:39:37.413Z,7.00
2019-04-04T08:44:42.643Z,7.20
2019-04-04T08:49:47.685Z,7.40
2019-04-04T08:54:53.002Z,7.60
2019-04-04T08:59:58.886Z,7.40
2019-04-04T09:05:11.929Z,7.70
2019-04-04T09:10:11.290Z,7.70
2019-04-04T09:15:16.405Z,7.70
2019-04-04T09:20:21.792Z,7.90
2019-04-04T09:25:26.858Z,8.00
2019-04-04T09:30:32.179Z,8.10
2019-04-04T09:35:37.430Z,8.20
2019-04-04T09:40:42.723Z,8.00
2019-04-04T09:45:47.891Z,7.90
2019-04-04T09:50:52.946Z,8.00
2019-04-04T09:55:57.909Z,8.20
2019-04-04T10:01:03.188Z,8.30
2019-04-04T10:06:08.442Z,8.20
2019-04-04T10:11:13.603Z,8.40
2019-04-04T10:16:18.757Z,8.40
2019-04-04T10:21:24.326Z,8.50
2019-04-04T10:26:29.570Z,8.20
2019-04-04T10:31:34.539Z,8.10
2019-04-04T10:36:39.701Z,8.40
2019-04-04T10:41:44.947Z,8.40
2019-04-04T10:46:49.926Z,8.20
2019-04-04T10:51:55.127Z,8.20
2019-04-04T10:57:00.857Z,8.10
2019-04-04T11:02:06.115Z,8.20
2019-04-04T11:07:11.310Z,8.10
2019-04-04T11:12:16.570Z,8.20
2019-04-04T11:17:21.535Z,8.10
2019-04-04T11:22:26.792Z,8.20
2019-04-04T11:27:32.228Z,8.20
2019-04-04T11:32:37.159Z,8.10
2019-04-04T11:37:42.709Z,8.50
2019-04-04T11:47:52.123Z,8.60
2019-04-04T11:52:57.353Z,8.60
2019-04-04T11:58:02.500Z,8.60
2019-04-04T12:03:07.849Z,8.70
2019-04-04T12:08:13.247Z,8.60
2019-04-04T12:13:18.353Z,8.60
2019-04-04T12:18:23.609Z,8.50
2019-04-04T12:23:29.027Z,8.60
2019-04-04T12:28:34.402Z,8.60
2019-04-04T12:33:39.303Z,8.60
2019-04-04T12:38:44.527Z,8.50
2019-04-04T12:43:50.103Z,8.40
2019-04-04T12:48:55.450Z,8.20
2019-04-04T12:54:01.013Z,8.30
2019-04-04T12:59:06.280Z,8.40
2019-04-04T13:04:11.267Z,8.50
2019-04-04T13:09:16.468Z,8.60
2019-04-04T13:14:21.731Z,8.50
2019-04-04T13:19:26.987Z,8.00
2019-04-04T13:24:34.134Z,7.80
2019-04-04T13:29:39.968Z,8.00
2019-04-04T13:34:45.242Z,8.00
2019-04-04T13:39:50.529Z,8.10
2019-04-04T13:44:56.058Z,8.10
2019-04-04T13:50:01.236Z,8.00
2019-04-04T13:55:06.694Z,7.80
2019-04-04T14:00:11.910Z,7.80
2019-04-04T14:05:17.164Z,7.90
2019-04-04T14:10:22.355Z,8.00
2019-04-04T14:15:27.273Z,8.00
2019-04-04T14:20:32.467Z,7.90
2019-04-04T14:25:37.692Z,7.70
2019-04-04T14:30:43.242Z,7.70
2019-04-04T14:35:48.145Z,7.80
2019-04-04T14:40:53.381Z,7.70
2019-04-04T14:45:58.856Z,8.10
2019-04-04T14:51:04.038Z,8.10
2019-04-04T14:56:09.326Z,7.90
2019-04-04T15:01:14.234Z,8.00
2019-04-04T15:06:19.426Z,8.10
2019-04-04T15:11:24.798Z,7.90
2019-04-04T15:16:30.213Z,8.00
2019-04-04T15:21:35.114Z,7.90
2019-04-04T15:26:40.440Z,8.00
2019-04-04T15:31:45.722Z,8.10
2019-04-04T15:36:51.255Z,8.10
2019-04-04T15:41:56.234Z,8.20
2019-04-04T15:47:01.270Z,8.20
2019-04-04T15:52:06.309Z,8.20
2019-04-04T15:57:11.569Z,8.20
2019-04-04T16:02:17.054Z,8.30
2019-04-04T16:07:21.954Z,8.20
2019-04-04T16:12:26.857Z,8.10
2019-04-04T16:17:32.389Z,8.00
2019-04-04T16:22:37.648Z,8.10
2019-04-04T16:27:43.206Z,8.20
2019-04-04T16:32:48.235Z,8.10
2019-04-04T16:37:53.441Z,8.10
2019-04-04T16:42:58.474Z,7.80
2019-04-04T16:48:03.440Z,8.00
2019-04-04T16:53:08.339Z,8.00
2019-04-04T16:58:14.234Z,8.20
2019-04-04T17:03:19.209Z,8.10
2019-04-04T17:08:24.742Z,8.20
2019-04-04T17:13:29.857Z,8.20
2019-04-04T17:18:34.951Z,8.30
2019-04-04T17:23:40.153Z,8.20
2019-04-04T17:28:45.078Z,8.20
2019-04-04T17:33:50.412Z,8.10
2019-04-04T17:38:55.966Z,8.10
2019-04-04T17:44:01.207Z,8.00
2019-04-04T17:49:06.638Z,7.80
2019-04-04T17:54:11.926Z,7.70
2019-04-04T17:59:17.134Z,7.70
2019-04-04T18:04:22.317Z,7.60
2019-04-04T18:09:32.086Z,7.40
2019-04-04T18:14:34.326Z,7.30
2019-04-04T18:19:58.938Z,7.20
2019-04-04T18:25:06.245Z,7.10
2019-04-04T18:30:11.812Z,7.00
2019-04-04T18:35:17.618Z,7.10
2019-04-04T18:40:22.768Z,7.10
2019-04-04T18:45:28.206Z,7.10
2019-04-04T18:50:34.200Z,7.10
2019-04-04T18:55:39.638Z,7.10
2019-04-04T19:00:44.818Z,7.20
2019-04-04T19:05:49.996Z,7.20
2019-04-04T19:10:55.437Z,7.20
2019-04-04T19:16:00.989Z,7.10
2019-04-04T19:21:06.062Z,7.00
2019-04-04T19:26:11.461Z,6.90
2019-04-04T19:31:16.582Z,7.00
2019-04-04T19:36:21.605Z,7.00
2019-04-04T19:41:27.023Z,6.70
2019-04-04T19:46:37.197Z,6.90
2019-04-04T19:51:39.305Z,6.80
2019-04-04T19:56:44.680Z,6.80
2019-04-04T20:01:49.757Z,6.80
2019-04-04T20:06:55.074Z,6.50
2019-04-04T20:12:00.514Z,6.50
2019-04-04T20:17:06.078Z,6.60
2019-04-04T20:22:13.306Z,6.50
2019-04-04T20:27:18.971Z,6.90
2019-04-04T20:32:30.763Z,6.90
2019-04-04T20:37:35.790Z,6.80
2019-04-04T20:42:41.179Z,6.70
2019-04-04T20:47:46.365Z,6.80
2019-04-04T20:52:51.452Z,6.90
2019-04-04T20:57:56.538Z,6.90
2019-04-04T21:03:01.854Z,7.10
2019-04-04T21:08:06.788Z,6.80
2019-04-04T21:13:11.697Z,6.80
2019-04-04T21:18:17.228Z,6.80
2019-04-04T21:23:22.499Z,6.80
2019-04-04T21:28:27.729Z,6.80
2019-04-04T21:33:32.911Z,6.70
2019-04-04T21:38:38.187Z,6.50
2019-04-04T21:43:43.357Z,6.60
2019-04-04T21:48:48.527Z,6.50
2019-04-04T21:53:53.510Z,6.40
2019-04-04T21:58:58.479Z,6.50
2019-04-04T22:04:03.511Z,6.10
2019-04-04T22:09:11.910Z,6.10
2019-04-04T22:14:21.832Z,6.10
2019-04-04T22:19:23.484Z,6.20
2019-04-04T22:24:28.498Z,6.00
2019-04-04T22:29:33.673Z,5.80
2019-04-04T22:34:38.858Z,5.50
2019-04-04T22:39:44.212Z,5.60
2019-04-04T22:44:49.387Z,5.60
2019-04-04T22:49:54.285Z,5.30
2019-04-04T22:54:59.862Z,5.20
2019-04-04T23:00:06.575Z,5.20
2019-04-04T23:05:11.536Z,5.70
2019-04-04T23:10:16.804Z,5.60
2019-04-04T23:15:22.240Z,5.80
2019-04-04T23:20:27.488Z,5.70
2019-04-04T23:25:32.743Z,5.60
2019-04-04T23:30:37.925Z,5.60
2019-04-04T23:35:43.515Z,5.70
2019-04-04T23:40:49.077Z,5.70
2019-04-04T23:45:53.972Z,6.30
2019-04-04T23:50:59.463Z,6.60
2019-04-04T23:56:04.788Z,6.10
